createdAt,value
2018-08-04T00:00:47.941Z,2.40
2018-08-04T00:01:48.122Z,2.40
2018-08-04T00:02:47.897Z,2.60
2018-08-04T00:03:47.876Z,2.70
2018-08-04T00:04:48.055Z,2.50
2018-08-04T00:05:48.037Z,2.40
2018-08-04T00:06:47.810Z,2.30
2018-08-04T00:07:47.788Z,2.60
2018-08-04T00:08:47.772Z,2.40
2018-08-04T00:09:47.946Z,2.50
2018-08-04T00:10:47.722Z,2.20
2018-08-04T00:11:47.743Z,2.60
2018-08-04T00:12:47.684Z,2.80
2018-08-04T00:13:47.662Z,2.80
2018-08-04T00:14:47.837Z,2.40
2018-08-04T00:15:47.615Z,2.40
2018-08-04T00:16:47.590Z,2.30
2018-08-04T00:17:47.569Z,2.40
2018-08-04T00:18:47.546Z,2.20
2018-08-04T00:19:47.525Z,2.50
2018-08-04T00:20:47.502Z,2.40
2018-08-04T00:21:47.480Z,2.20
2018-08-04T00:22:47.459Z,2.50
2018-08-04T00:23:47.437Z,2.50
2018-08-04T00:24:47.414Z,2.30
2018-08-04T00:25:47.392Z,2.30
2018-08-04T00:26:47.370Z,2.50
2018-08-04T00:27:47.351Z,2.80
2018-08-04T00:28:47.326Z,2.40
2018-08-04T00:29:47.304Z,2.30
2018-08-04T00:30:47.281Z,2.50
2018-08-04T00:31:47.261Z,2.50
2018-08-04T00:32:47.238Z,2.50
2018-08-04T00:33:47.216Z,2.30
2018-08-04T00:34:47.197Z,2.40
2018-08-04T00:35:47.172Z,2.50
2018-08-04T00:36:47.149Z,2.70
2018-08-04T00:37:47.130Z,2.30
2018-08-04T00:38:47.107Z,2.50
2018-08-04T00:39:47.084Z,2.40
2018-08-04T00:40:47.062Z,2.30
2018-08-04T00:41:47.039Z,2.60
2018-08-04T00:42:47.018Z,2.80
2018-08-04T00:43:46.996Z,2.30
2018-08-04T00:44:46.972Z,2.30
2018-08-04T00:45:46.954Z,2.20
2018-08-04T00:46:46.934Z,2.80
2018-08-04T00:47:46.908Z,2.60
2018-08-04T00:48:46.885Z,2.20
2018-08-04T00:49:46.862Z,2.40
2018-08-04T00:50:46.846Z,2.50
2018-08-04T00:51:46.819Z,2.40
2018-08-04T00:52:46.795Z,2.10
2018-08-04T00:53:46.775Z,2.50
2018-08-04T00:54:46.752Z,2.20
2018-08-04T00:55:46.736Z,2.50
2018-08-04T00:56:46.709Z,2.30
2018-08-04T00:57:46.685Z,2.40
2018-08-04T00:58:46.664Z,2.60
2018-08-04T00:59:46.642Z,2.40
2018-08-04T01:00:46.621Z,2.50
2018-08-04T01:01:46.600Z,2.70
2018-08-04T01:02:46.575Z,2.60
2018-08-04T01:03:46.557Z,2.40
2018-08-04T01:04:46.531Z,2.40
2018-08-04T01:05:46.508Z,2.60
2018-08-04T01:06:46.492Z,2.50
2018-08-04T01:07:46.466Z,2.50
2018-08-04T01:08:46.441Z,2.40
2018-08-04T01:09:46.422Z,2.60
2018-08-04T01:10:46.401Z,2.60
2018-08-04T01:11:46.377Z,2.20
2018-08-04T01:12:46.356Z,2.40
2018-08-04T01:13:46.357Z,2.50
2018-08-04T01:14:46.311Z,2.30
2018-08-04T01:16:28.440Z,2.20
2018-08-04T01:17:28.418Z,2.20
2018-08-04T01:18:28.397Z,2.50
2018-08-04T01:19:28.377Z,2.30
2018-08-04T01:20:28.355Z,2.50
2018-08-04T01:21:28.331Z,2.70
2018-08-04T01:22:28.309Z,2.20
2018-08-04T01:23:28.287Z,2.40
2018-08-04T01:24:28.263Z,2.70
2018-08-04T01:25:28.447Z,2.50
2018-08-04T01:26:28.218Z,2.50
2018-08-04T01:27:28.205Z,2.50
2018-08-04T01:28:28.175Z,2.40
2018-08-04T01:29:28.152Z,2.60
2018-08-04T01:30:28.138Z,2.40
2018-08-04T01:31:28.107Z,2.40
2018-08-04T01:32:28.090Z,2.20
2018-08-04T01:33:28.064Z,2.10
2018-08-04T01:34:28.243Z,2.60
2018-08-04T01:35:28.021Z,2.50
2018-08-04T01:36:28.000Z,2.40
2018-08-04T01:37:27.973Z,2.20
2018-08-04T01:38:27.952Z,2.30
2018-08-04T01:39:27.930Z,2.60
2018-08-04T01:40:27.908Z,2.60
2018-08-04T01:41:27.886Z,2.50
2018-08-04T01:42:28.065Z,2.40
2018-08-04T01:43:27.842Z,2.70
2018-08-04T01:44:27.824Z,2.20
2018-08-04T01:45:27.797Z,2.70
2018-08-04T01:46:27.774Z,2.50
2018-08-04T01:47:27.754Z,2.50
2018-08-04T01:48:27.732Z,2.80
2018-08-04T01:49:27.708Z,2.30
2018-08-04T01:50:27.685Z,2.40
2018-08-04T01:51:27.664Z,2.60
2018-08-04T01:52:27.643Z,2.60
2018-08-04T01:53:27.619Z,2.40
2018-08-04T01:54:27.598Z,2.30
2018-08-04T01:55:27.576Z,2.40
2018-08-04T01:56:27.555Z,2.30
2018-08-04T01:57:27.531Z,2.40
2018-08-04T01:58:27.509Z,2.60
2018-08-04T01:59:27.487Z,2.30
2018-08-04T02:00:27.465Z,2.30
2018-08-04T02:01:27.442Z,2.40
2018-08-04T02:02:27.421Z,2.40
2018-08-04T02:03:27.399Z,2.50
2018-08-04T02:04:27.377Z,2.40
2018-08-04T02:05:27.356Z,2.40
2018-08-04T02:06:27.337Z,2.50
2018-08-04T02:07:27.312Z,2.30
2018-08-04T02:08:27.289Z,2.50
2018-08-04T02:09:27.265Z,2.40
2018-08-04T02:10:27.243Z,2.50
2018-08-04T02:11:27.221Z,2.80
2018-08-04T02:12:27.200Z,2.50
2018-08-04T02:13:27.177Z,2.60
2018-08-04T02:14:27.153Z,2.80
2018-08-04T02:15:27.134Z,2.40
2018-08-04T02:16:27.110Z,2.50
2018-08-04T02:17:27.087Z,2.20
2018-08-04T02:18:27.066Z,2.40
2018-08-04T02:19:27.044Z,2.40
2018-08-04T02:20:27.022Z,2.70
2018-08-04T02:21:26.999Z,2.70
2018-08-04T02:22:26.979Z,2.50
2018-08-04T02:23:26.958Z,2.20
2018-08-04T02:24:26.937Z,2.50
2018-08-04T02:25:26.910Z,2.50
2018-08-04T02:26:26.898Z,2.60
2018-08-04T02:27:26.866Z,2.70
2018-08-04T02:28:26.844Z,2.70
2018-08-04T02:29:26.835Z,2.60
2018-08-04T02:30:26.801Z,2.60
2018-08-04T02:31:26.776Z,2.70
2018-08-04T02:32:26.756Z,2.60
2018-08-04T02:33:26.739Z,2.60
2018-08-04T02:34:26.710Z,3.00
2018-08-04T02:35:26.688Z,2.50
2018-08-04T02:36:26.665Z,2.60
2018-08-04T02:37:26.643Z,2.40
2018-08-04T02:38:26.621Z,2.50
2018-08-04T02:39:26.599Z,2.60
2018-08-04T02:40:26.579Z,2.70
2018-08-04T02:41:26.568Z,2.70
2018-08-04T02:42:26.536Z,2.60
2018-08-04T02:43:26.511Z,2.50
2018-08-04T02:44:26.495Z,2.90
2018-08-04T02:45:26.464Z,2.50
2018-08-04T02:46:26.443Z,2.60
2018-08-04T02:47:26.572Z,2.50
2018-08-04T02:48:26.407Z,2.50
2018-08-04T02:49:26.377Z,2.90
2018-08-04T02:50:26.353Z,2.60
2018-08-04T02:51:26.333Z,2.60
2018-08-04T02:52:26.310Z,2.50
2018-08-04T02:53:26.287Z,2.70
2018-08-04T02:54:26.269Z,2.60
2018-08-04T02:55:26.242Z,2.40
2018-08-04T02:56:26.221Z,2.60
2018-08-04T02:57:26.198Z,2.70
2018-08-04T02:58:26.175Z,2.50
2018-08-04T02:59:26.158Z,2.60
2018-08-04T03:00:26.140Z,2.70
2018-08-04T03:01:26.108Z,2.30
2018-08-04T03:02:26.090Z,2.70
2018-08-04T03:03:26.065Z,2.70
2018-08-04T03:04:26.045Z,3.00
2018-08-04T03:05:26.020Z,3.00
2018-08-04T03:06:25.998Z,2.80
2018-08-04T03:07:25.977Z,2.60
2018-08-04T03:08:26.012Z,2.80
2018-08-04T03:09:25.931Z,2.80
2018-08-04T03:10:25.909Z,2.90
2018-08-04T03:11:25.890Z,3.10
2018-08-04T03:12:25.865Z,2.70
2018-08-04T03:13:25.843Z,2.40
2018-08-04T03:14:25.820Z,2.70
2018-08-04T03:15:25.800Z,2.90
2018-08-04T03:16:25.776Z,3.10
2018-08-04T03:17:25.757Z,3.10
2018-08-04T03:18:25.732Z,2.60
2018-08-04T03:19:25.713Z,3.10
2018-08-04T03:20:25.690Z,2.90
2018-08-04T03:21:25.665Z,2.90
2018-08-04T03:22:25.641Z,2.90
2018-08-04T03:23:25.623Z,2.70
2018-08-04T03:25:07.953Z,2.70
2018-08-04T03:26:07.729Z,2.80
2018-08-04T03:27:07.707Z,2.50
2018-08-04T03:28:07.692Z,2.70
2018-08-04T03:29:10.486Z,2.40
2018-08-04T03:30:49.999Z,2.90
2018-08-04T03:31:49.769Z,2.70
2018-08-04T03:32:49.749Z,3.10
2018-08-04T03:33:49.725Z,2.90
2018-08-04T03:34:49.702Z,2.90
2018-08-04T03:35:49.882Z,3.00
2018-08-04T03:36:49.867Z,2.80
2018-08-04T03:37:49.635Z,2.70
2018-08-04T03:38:49.613Z,3.00
2018-08-04T03:39:49.589Z,2.60
2018-08-04T03:40:49.569Z,2.80
2018-08-04T03:41:49.545Z,2.60
2018-08-04T03:42:49.724Z,2.60
2018-08-04T03:43:49.500Z,2.80
2018-08-04T03:44:49.478Z,3.00
2018-08-04T03:45:49.454Z,2.90
2018-08-04T03:46:49.433Z,2.80
2018-08-04T03:47:49.412Z,2.70
2018-08-04T03:48:49.389Z,2.90
2018-08-04T03:49:49.368Z,2.90
2018-08-04T03:50:49.344Z,2.90
2018-08-04T03:51:49.322Z,3.10
2018-08-04T03:52:49.299Z,2.70
2018-08-04T03:53:49.277Z,2.80
2018-08-04T03:54:49.257Z,2.80
2018-08-04T03:55:49.232Z,2.70
2018-08-04T03:56:49.210Z,3.10
2018-08-04T03:57:49.188Z,2.80
2018-08-04T03:58:49.366Z,2.90
2018-08-04T03:59:49.170Z,3.20
2018-08-04T04:00:49.121Z,3.30
2018-08-04T04:01:49.099Z,3.10
2018-08-04T04:02:49.076Z,3.20
2018-08-04T04:03:49.053Z,3.10
2018-08-04T04:04:49.034Z,3.10
2018-08-04T04:05:49.014Z,2.90
2018-08-04T04:06:48.994Z,3.20
2018-08-04T04:07:48.964Z,3.10
2018-08-04T04:08:48.972Z,3.00
2018-08-04T04:09:48.920Z,3.00
2018-08-04T04:10:48.898Z,3.30
2018-08-04T04:11:48.879Z,3.00
2018-08-04T04:12:48.852Z,3.10
2018-08-04T04:13:48.831Z,3.10
2018-08-04T04:14:48.812Z,3.00
2018-08-04T04:15:48.787Z,3.10
2018-08-04T04:16:48.771Z,2.90
2018-08-04T04:17:48.742Z,3.20
2018-08-04T04:18:48.720Z,3.10
2018-08-04T04:19:48.699Z,3.20
2018-08-04T04:20:48.678Z,3.10
2018-08-04T04:21:48.657Z,3.30
2018-08-04T04:22:48.639Z,3.30
2018-08-04T04:23:48.618Z,3.40
2018-08-04T04:24:48.592Z,2.90
2018-08-04T04:25:48.566Z,3.10
2018-08-04T04:26:48.544Z,3.40
2018-08-04T04:27:48.726Z,3.20
2018-08-04T04:28:48.703Z,3.00
2018-08-04T04:29:48.680Z,3.30
2018-08-04T04:30:48.659Z,3.20
2018-08-04T04:31:48.640Z,3.00
2018-08-04T04:32:48.619Z,3.30
2018-08-04T04:33:48.388Z,3.10
2018-08-04T04:34:48.367Z,3.10
2018-08-04T04:35:48.343Z,3.00
2018-08-04T04:36:48.385Z,3.20
2018-08-04T04:37:48.300Z,3.10
2018-08-04T04:38:48.277Z,3.10
2018-08-04T04:39:48.255Z,3.10
2018-08-04T04:40:48.234Z,3.10
2018-08-04T04:41:48.212Z,3.00
2018-08-04T04:42:48.187Z,2.90
2018-08-04T04:43:48.165Z,3.20
2018-08-04T04:44:48.144Z,3.60
2018-08-04T04:45:48.126Z,3.40
2018-08-04T04:46:48.100Z,3.20
2018-08-04T04:47:48.077Z,3.30
2018-08-04T04:48:48.054Z,3.30
2018-08-04T04:49:48.033Z,3.50
2018-08-04T04:50:48.010Z,3.70
2018-08-04T04:51:47.988Z,3.50
2018-08-04T04:52:47.972Z,3.40
2018-08-04T04:53:47.944Z,3.30
2018-08-04T04:54:47.923Z,3.60
2018-08-04T04:55:47.899Z,3.40
2018-08-04T04:56:47.877Z,3.50
2018-08-04T04:57:47.865Z,3.40
2018-08-04T04:58:47.834Z,3.30
2018-08-04T04:59:47.811Z,3.40
2018-08-04T05:00:47.790Z,2.90
2018-08-04T05:01:47.767Z,3.30
2018-08-04T05:02:47.746Z,3.50
2018-08-04T05:03:47.723Z,3.20
2018-08-04T05:04:47.701Z,3.00
2018-08-04T05:05:47.682Z,3.30
2018-08-04T05:06:47.659Z,3.40
2018-08-04T05:07:47.634Z,3.10
2018-08-04T05:08:47.668Z,3.00
2018-08-04T05:09:47.591Z,3.00
2018-08-04T05:10:47.772Z,3.20
2018-08-04T05:11:47.547Z,2.90
2018-08-04T05:12:47.525Z,3.30
2018-08-04T05:13:47.504Z,3.10
2018-08-04T05:14:47.483Z,3.10
2018-08-04T05:15:47.458Z,3.00
2018-08-04T05:16:47.439Z,3.10
2018-08-04T05:17:47.416Z,3.10
2018-08-04T05:18:47.397Z,3.00
2018-08-04T05:19:47.373Z,2.90
2018-08-04T05:20:47.355Z,2.70
2018-08-04T05:21:47.336Z,2.80
2018-08-04T05:22:47.308Z,2.70
2018-08-04T05:23:47.289Z,2.80
2018-08-04T05:24:47.264Z,3.10
2018-08-04T05:25:47.243Z,3.10
2018-08-04T05:26:47.222Z,2.80
2018-08-04T05:27:47.199Z,3.00
2018-08-04T05:28:47.178Z,2.80
2018-08-04T05:29:47.159Z,3.20
2018-08-04T05:30:47.136Z,3.30
2018-08-04T05:31:47.113Z,3.00
2018-08-04T05:32:47.092Z,2.80
2018-08-04T05:33:47.075Z,2.90
2018-08-04T05:34:47.057Z,2.90
2018-08-04T05:35:47.028Z,3.10
2018-08-04T05:36:47.006Z,3.00
2018-08-04T05:37:46.985Z,3.00
2018-08-04T05:38:46.964Z,3.20
2018-08-04T05:39:46.943Z,3.00
2018-08-04T05:40:46.922Z,3.60
2018-08-04T05:41:46.899Z,3.30
2018-08-04T05:42:46.878Z,2.90
2018-08-04T05:43:46.862Z,2.90
2018-08-04T05:44:46.835Z,2.90
2018-08-04T05:45:46.818Z,2.70
2018-08-04T05:46:46.793Z,3.10
2018-08-04T05:47:46.771Z,2.90
2018-08-04T05:48:46.750Z,2.90
2018-08-04T05:49:46.936Z,3.10
2018-08-04T05:50:46.713Z,2.80
2018-08-04T05:51:46.892Z,3.00
2018-08-04T05:52:46.868Z,3.00
2018-08-04T05:53:46.645Z,2.90
2018-08-04T05:54:46.826Z,2.70
2018-08-04T05:55:46.805Z,2.60
2018-08-04T05:56:46.582Z,2.90
2018-08-04T05:57:46.562Z,2.80
2018-08-04T05:58:46.540Z,2.80
2018-08-04T05:59:46.518Z,2.60
2018-08-04T06:00:46.498Z,2.60
2018-08-04T06:01:46.477Z,2.70
2018-08-04T06:02:46.459Z,2.60
2018-08-04T06:03:46.640Z,2.60
2018-08-04T06:04:46.418Z,2.80
2018-08-04T06:05:46.396Z,2.80
2018-08-04T06:06:46.375Z,2.90
2018-08-04T06:07:46.367Z,2.80
2018-08-04T06:08:46.339Z,3.00
2018-08-04T06:09:46.316Z,2.80
2018-08-04T06:10:46.293Z,3.00
2018-08-04T06:11:46.271Z,2.70
2018-08-04T06:12:46.251Z,3.00
2018-08-04T06:13:46.232Z,2.80
2018-08-04T06:14:46.211Z,2.70
2018-08-04T06:15:46.188Z,2.70
2018-08-04T06:16:46.170Z,2.80
2018-08-04T06:17:46.155Z,2.80
2018-08-04T06:19:46.311Z,2.80
2018-08-04T06:20:46.090Z,2.50
2018-08-04T06:21:46.270Z,2.20
2018-08-04T06:24:10.570Z,2.50
2018-08-04T06:33:36.390Z,2.40
2018-08-04T06:35:18.788Z,2.50
2018-08-04T06:36:18.766Z,2.70
2018-08-04T06:37:18.746Z,2.50
2018-08-04T06:38:18.727Z,2.70
2018-08-04T06:40:00.864Z,2.30
2018-08-04T06:41:00.844Z,2.20
2018-08-04T06:42:00.827Z,2.20
2018-08-04T06:43:00.605Z,2.40
2018-08-04T06:44:00.586Z,2.40
2018-08-04T06:45:00.566Z,2.30
2018-08-04T06:46:00.549Z,2.60
2018-08-04T06:47:00.532Z,2.40
2018-08-04T06:48:00.516Z,2.60
2018-08-04T06:49:00.497Z,2.30
2018-08-04T06:50:00.481Z,2.70
2018-08-04T06:51:00.459Z,2.40
2018-08-04T06:52:00.437Z,2.40
2018-08-04T06:53:00.446Z,2.20
2018-08-04T06:54:00.400Z,2.50
2018-08-04T06:55:00.383Z,2.40
2018-08-04T06:56:00.362Z,2.40
2018-08-04T06:57:00.343Z,2.40
2018-08-04T06:58:00.323Z,2.40
2018-08-04T06:59:00.305Z,2.90
2018-08-04T07:00:00.285Z,2.80
2018-08-04T07:01:00.265Z,2.70
2018-08-04T07:02:00.252Z,2.40
2018-08-04T07:03:00.228Z,3.10
2018-08-04T07:04:00.213Z,3.30
2018-08-04T07:05:00.189Z,2.60
2018-08-04T07:06:00.170Z,2.70
2018-08-04T07:07:00.150Z,3.10
2018-08-04T07:08:00.131Z,2.80
2018-08-04T07:09:00.114Z,3.10
2018-08-04T07:10:00.092Z,3.00
2018-08-04T07:11:00.076Z,2.70
2018-08-04T07:12:00.054Z,2.70
2018-08-04T07:13:00.034Z,2.80
2018-08-04T07:14:00.014Z,2.70
2018-08-04T07:14:59.994Z,2.80
2018-08-04T07:15:59.975Z,2.90
2018-08-04T07:16:59.956Z,2.70
2018-08-04T07:18:42.294Z,2.70
2018-08-04T07:19:42.276Z,2.70
2018-08-04T07:22:48.771Z,3.00
2018-08-04T07:23:48.512Z,2.80
2018-08-04T07:24:48.491Z,3.20
2018-08-04T07:26:30.828Z,2.70
2018-08-04T07:27:30.811Z,2.60
2018-08-04T07:28:30.593Z,2.90
2018-08-04T07:29:30.777Z,2.80
2018-08-04T07:31:55.074Z,2.50
2018-08-04T07:32:55.119Z,2.70
2018-08-04T07:33:55.044Z,2.70
2018-08-04T07:34:55.025Z,2.70
2018-08-04T07:35:55.009Z,3.00
2018-08-04T07:37:40.176Z,3.20
2018-08-04T07:46:23.496Z,2.60
2018-08-04T07:47:20.853Z,2.60
2018-08-04T07:51:51.626Z,3.00
2018-08-04T07:52:51.610Z,2.90
2018-08-04T07:53:51.593Z,2.30
2018-08-04T07:54:51.378Z,2.60
2018-08-04T07:57:16.030Z,2.30
2018-08-04T08:00:22.340Z,2.30
2018-08-04T08:01:22.334Z,2.50
2018-08-04T08:02:22.109Z,2.50
2018-08-04T08:03:22.095Z,2.70
2018-08-04T08:04:22.077Z,2.40
2018-08-04T08:06:04.425Z,2.60
2018-08-04T08:07:04.409Z,2.90
2018-08-04T08:08:04.392Z,2.40
2018-08-04T08:09:04.177Z,2.80
2018-08-04T08:10:04.363Z,2.50
2018-08-04T08:11:04.195Z,2.60
2018-08-04T08:12:04.334Z,3.00
2018-08-04T08:14:28.902Z,2.80
2018-08-04T08:15:28.893Z,2.70
2018-08-04T08:16:28.873Z,2.40
2018-08-04T08:18:53.178Z,2.20
2018-08-04T08:19:53.162Z,2.30
2018-08-04T08:21:35.308Z,2.40
2018-08-04T08:23:17.493Z,2.30
2018-08-04T08:24:17.439Z,2.20
2018-08-04T08:25:17.427Z,2.40
2018-08-04T08:26:17.209Z,2.40
2018-08-04T08:27:17.418Z,2.10
2018-08-04T08:28:20.004Z,2.30
2018-08-04T08:29:17.369Z,2.50
2018-08-04T08:30:17.355Z,2.30
2018-08-04T08:31:17.378Z,2.10
2018-08-04T08:32:17.329Z,2.60
2018-08-04T08:33:17.317Z,2.50
2018-08-04T08:34:17.301Z,2.50
2018-08-04T08:35:17.493Z,2.30
2018-08-04T08:36:17.277Z,2.20
2018-08-04T08:37:17.261Z,2.60
2018-08-04T08:38:17.247Z,2.40
2018-08-04T08:39:17.235Z,2.10
2018-08-04T08:41:02.408Z,2.20
2018-08-04T08:41:59.372Z,2.20
2018-08-04T08:42:59.358Z,2.20
2018-08-04T08:45:01.953Z,2.00
2018-08-04T08:47:23.640Z,2.20
2018-08-04T08:51:54.433Z,2.30
2018-08-04T09:32:15.411Z,2.40
2018-08-04T09:33:57.559Z,2.80
2018-08-04T09:37:04.031Z,2.60
2018-08-04T09:38:04.019Z,2.30
2018-08-04T09:39:04.059Z,2.70
2018-08-04T09:44:59.127Z,2.20
2018-08-04T09:46:41.276Z,2.30
2018-08-04T09:47:41.267Z,2.20
2018-08-04T09:49:23.414Z,2.50
2018-08-04T09:50:23.407Z,2.70
2018-08-04T09:52:06.841Z,2.20
2018-08-04T09:55:13.315Z,2.20
2018-08-04T09:56:13.912Z,2.20
2018-08-04T09:57:13.293Z,2.30
2018-08-04T09:58:13.288Z,2.50
2018-08-04T09:59:13.271Z,2.00
2018-08-04T10:01:13.047Z,2.30
2018-08-04T10:03:37.564Z,2.30
2018-08-04T10:04:37.553Z,2.40
2018-08-04T10:05:37.339Z,2.40
2018-08-04T10:24:05.093Z,2.30
2018-08-04T10:25:04.874Z,2.10
2018-08-04T10:26:04.891Z,2.10
2018-08-04T10:27:05.052Z,2.30
2018-08-04T10:28:04.848Z,2.00
2018-08-04T10:29:04.828Z,2.20
2018-08-04T12:07:29.563Z,2.70
2018-08-04T12:08:32.315Z,2.70
2018-08-04T12:10:54.606Z,3.00
2018-08-04T12:11:53.180Z,2.90
2018-08-04T12:12:53.364Z,3.00
2018-08-04T12:13:53.151Z,2.80
2018-08-04T12:14:53.136Z,2.70
2018-08-04T12:15:53.124Z,2.80
2018-08-04T12:16:53.313Z,2.70
2018-08-04T12:17:53.098Z,2.80
2018-08-04T12:18:53.086Z,2.50
2018-08-04T12:19:53.073Z,2.70
2018-08-04T12:20:53.061Z,2.70
2018-08-04T12:21:53.049Z,2.60
2018-08-04T12:22:53.036Z,2.70
2018-08-04T12:23:53.225Z,2.50
2018-08-04T12:24:53.215Z,2.80
2018-08-04T12:25:53.402Z,2.70
2018-08-04T12:27:35.346Z,2.50
2018-08-04T12:28:35.336Z,2.20
2018-08-04T12:29:35.321Z,2.60
2018-08-04T12:30:35.104Z,2.40
2018-08-04T12:31:35.358Z,3.20
2018-08-04T12:32:35.275Z,2.60
2018-08-04T12:33:37.884Z,2.40
2018-08-04T12:35:17.408Z,2.50
2018-08-04T12:36:17.192Z,2.70
2018-08-04T12:37:17.178Z,2.50
2018-08-04T12:38:17.166Z,2.60
2018-08-04T12:39:17.353Z,2.50
2018-08-04T12:40:17.135Z,2.20
2018-08-04T12:41:17.361Z,2.40
2018-08-04T12:42:17.116Z,2.20
2018-08-04T12:43:17.097Z,2.50
2018-08-04T12:44:17.082Z,2.40
2018-08-04T12:45:17.276Z,2.40
2018-08-04T12:46:17.261Z,2.10
2018-08-04T12:47:17.246Z,2.20
2018-08-04T12:48:17.030Z,2.00
2018-08-04T12:49:17.220Z,2.30
2018-08-04T12:50:17.211Z,2.20
2018-08-04T12:51:17.204Z,2.20
2018-08-04T12:52:17.184Z,2.10
2018-08-04T12:54:02.154Z,2.40
2018-08-04T12:54:59.318Z,2.40
2018-08-04T12:55:59.103Z,2.10
2018-08-04T12:56:59.293Z,2.20
2018-08-04T12:58:02.306Z,2.20
2018-08-04T13:00:23.600Z,2.10
2018-08-04T13:02:47.903Z,2.30
2018-08-04T13:03:47.891Z,2.10
2018-08-04T13:06:54.365Z,2.30
2018-08-04T13:07:54.152Z,2.20
2018-08-04T13:08:54.212Z,2.40
2018-08-04T13:09:54.129Z,2.10
2018-08-04T13:10:54.116Z,2.20
2018-08-04T13:11:54.117Z,2.40
2018-08-04T13:12:54.095Z,2.10
2018-08-04T13:13:54.081Z,2.10
2018-08-04T13:14:54.075Z,2.20
2018-08-04T13:15:54.273Z,2.00
2018-08-04T13:16:54.048Z,2.40
2018-08-04T13:18:36.447Z,2.30
2018-08-04T13:19:36.390Z,2.10
2018-08-04T13:20:36.177Z,2.10
2018-08-04T13:21:36.167Z,1.90
2018-08-04T13:22:36.153Z,2.10
2018-08-04T13:23:36.141Z,2.20
2018-08-04T13:24:36.153Z,2.10
2018-08-04T13:25:36.322Z,2.20
2018-08-04T13:26:36.109Z,2.00
2018-08-04T13:27:36.097Z,2.20
2018-08-04T13:28:36.091Z,1.90
2018-08-04T13:29:36.091Z,1.90
2018-08-04T13:30:36.064Z,1.80
2018-08-04T13:31:36.053Z,2.10
2018-08-04T13:32:36.052Z,2.20
2018-08-04T13:33:36.031Z,2.20
2018-08-04T13:34:36.020Z,2.10
2018-08-04T13:35:36.013Z,2.00
2018-08-04T13:36:35.996Z,2.00
2018-08-04T13:37:36.035Z,2.00
2018-08-04T13:38:36.178Z,2.30
2018-08-04T13:40:18.327Z,2.10
2018-08-04T13:41:18.317Z,2.00
2018-08-04T13:42:18.102Z,1.80
2018-08-04T13:43:18.299Z,2.00
2018-08-04T13:44:18.087Z,2.00
2018-08-04T13:47:00.421Z,2.00
2018-08-04T13:48:00.409Z,2.00
2018-08-04T13:49:00.397Z,1.90
2018-08-04T13:50:00.384Z,1.90
2018-08-04T13:51:00.385Z,1.90
2018-08-04T13:52:00.358Z,2.00
2018-08-04T13:53:00.345Z,2.20
2018-08-04T13:54:00.131Z,2.10
2018-08-04T13:55:00.117Z,2.20
2018-08-04T13:56:00.104Z,2.00
2018-08-04T13:57:00.299Z,1.90
2018-08-04T13:58:00.280Z,1.90
2018-08-04T13:59:00.065Z,1.90
2018-08-04T14:00:00.256Z,1.80
2018-08-04T14:01:00.048Z,1.90
2018-08-04T14:02:00.028Z,2.10
2018-08-04T14:03:00.013Z,1.80
2018-08-04T14:03:59.998Z,1.90
2018-08-04T14:04:59.990Z,1.70
2018-08-04T14:06:00.084Z,2.00
2018-08-04T14:06:59.959Z,2.10
2018-08-04T14:08:00.152Z,2.10
2018-08-04T14:09:03.767Z,2.20
2018-08-04T14:10:00.124Z,2.00
2018-08-04T14:20:08.194Z,2.10
2018-08-04T14:21:08.181Z,2.20
2018-08-04T14:22:08.168Z,2.30
2018-08-04T14:23:07.952Z,2.00
2018-08-04T14:24:07.938Z,2.30
2018-08-04T14:25:07.925Z,2.00
2018-08-04T14:26:07.913Z,2.00
2018-08-04T14:27:07.899Z,2.10
2018-08-04T14:28:07.887Z,2.00
2018-08-04T14:29:07.873Z,2.00
2018-08-04T14:30:07.862Z,2.20
2018-08-04T14:31:07.848Z,1.90
2018-08-04T14:32:08.038Z,2.10
2018-08-04T14:33:07.821Z,2.10
2018-08-04T14:34:07.818Z,2.00
2018-08-04T14:35:07.801Z,2.30
2018-08-04T14:36:07.786Z,1.90
2018-08-04T14:37:07.771Z,2.20
2018-08-04T14:38:07.757Z,2.20
2018-08-04T14:39:07.753Z,2.30
2018-08-04T14:40:07.746Z,2.20
2018-08-04T14:41:07.719Z,2.20
2018-08-04T14:42:07.708Z,2.20
2018-08-04T14:43:07.694Z,2.20
2018-08-04T14:44:07.882Z,2.00
2018-08-04T14:45:07.667Z,2.20
2018-08-04T14:46:07.653Z,2.20
2018-08-04T14:47:07.660Z,1.90
2018-08-04T14:48:07.629Z,2.30
2018-08-04T14:49:07.614Z,2.20
2018-08-04T14:50:07.602Z,2.10
2018-08-04T14:51:07.588Z,2.00
2018-08-04T14:52:07.575Z,2.00
2018-08-04T14:53:07.561Z,2.20
2018-08-04T14:54:07.548Z,2.00
2018-08-04T14:55:07.605Z,2.50
2018-08-04T14:56:07.523Z,2.20
2018-08-04T14:57:07.514Z,2.30
2018-08-04T14:58:07.496Z,2.10
2018-08-04T14:59:07.483Z,2.30
2018-08-04T15:00:07.470Z,2.20
2018-08-04T15:01:07.456Z,2.30
2018-08-04T15:02:07.449Z,1.90
2018-08-04T15:03:07.634Z,2.10
2018-08-04T15:04:07.618Z,1.90
2018-08-04T15:05:07.607Z,2.20
2018-08-04T15:06:49.752Z,2.10
2018-08-04T15:07:49.737Z,2.10
2018-08-04T15:08:49.726Z,2.50
2018-08-04T15:09:49.710Z,2.00
2018-08-04T15:10:49.494Z,2.10
2018-08-04T15:11:49.681Z,2.00
2018-08-04T15:12:49.668Z,2.30
2018-08-04T15:13:49.450Z,2.00
2018-08-04T15:14:49.438Z,2.00
2018-08-04T15:15:49.475Z,2.40
2018-08-04T15:16:49.432Z,1.80
2018-08-04T15:17:49.395Z,2.20
2018-08-04T15:18:49.381Z,2.30
2018-08-04T15:19:49.365Z,2.20
2018-08-04T15:20:49.354Z,2.10
2018-08-04T15:21:49.337Z,2.10
2018-08-04T15:22:49.325Z,2.10
2018-08-04T15:23:49.513Z,2.40
2018-08-04T15:24:49.498Z,2.30
2018-08-04T15:25:49.484Z,2.40
2018-08-04T15:26:49.470Z,2.10
2018-08-04T15:27:49.516Z,2.30
2018-08-04T15:28:49.442Z,2.20
2018-08-04T15:31:58.735Z,2.50
2018-08-04T15:32:55.893Z,2.20
2018-08-04T15:33:55.909Z,2.30
2018-08-04T15:34:55.659Z,2.20
2018-08-04T15:38:44.480Z,2.50
2018-08-04T15:39:44.469Z,2.30
2018-08-04T15:41:26.608Z,2.20
2018-08-04T15:42:26.390Z,2.50
2018-08-04T15:43:26.577Z,2.60
2018-08-04T15:44:26.562Z,2.50
2018-08-04T15:45:26.545Z,2.40
2018-08-04T15:46:26.532Z,2.40
2018-08-04T15:47:26.515Z,2.40
2018-08-04T15:48:26.499Z,2.40
2018-08-04T15:49:26.486Z,2.60
2018-08-04T15:50:26.466Z,2.30
2018-08-04T15:51:26.249Z,2.80
2018-08-04T15:52:26.435Z,2.50
2018-08-04T15:53:29.047Z,2.40
2018-08-04T15:54:26.402Z,2.40
2018-08-04T15:55:26.184Z,2.40
2018-08-04T15:56:26.371Z,2.50
2018-08-04T15:57:26.152Z,2.40
2018-08-04T15:58:26.134Z,2.20
2018-08-04T15:59:26.118Z,2.60
2018-08-04T16:00:26.104Z,2.50
2018-08-04T16:01:26.091Z,2.50
2018-08-04T16:02:26.070Z,2.50
2018-08-04T16:03:26.054Z,2.60
2018-08-04T16:04:26.241Z,2.50
2018-08-04T16:05:26.023Z,2.40
2018-08-04T16:06:26.006Z,2.60
2018-08-04T16:07:25.991Z,2.20
2018-08-04T16:08:25.975Z,2.60
2018-08-04T16:09:26.167Z,2.50
2018-08-04T16:10:25.943Z,2.60
2018-08-04T16:11:25.927Z,2.90
2018-08-04T16:12:25.910Z,2.30
2018-08-04T16:13:25.895Z,2.10
2018-08-04T16:14:25.879Z,2.60
2018-08-04T16:15:25.862Z,2.50
2018-08-04T16:16:25.849Z,2.70
2018-08-04T16:17:25.834Z,2.30
2018-08-04T16:18:25.818Z,2.50
2018-08-04T16:19:25.799Z,2.80
2018-08-04T16:20:25.784Z,2.60
2018-08-04T16:21:25.775Z,2.80
2018-08-04T16:22:25.750Z,2.60
2018-08-04T16:23:25.735Z,2.60
2018-08-04T16:24:25.738Z,2.70
2018-08-04T16:25:25.705Z,2.60
2018-08-04T16:26:25.684Z,2.30
2018-08-04T16:27:25.674Z,2.50
2018-08-04T16:28:25.657Z,2.20
2018-08-04T16:29:25.638Z,2.50
2018-08-04T16:30:25.622Z,2.30
2018-08-04T16:31:25.606Z,2.20
2018-08-04T16:32:25.591Z,2.20
2018-08-04T16:33:25.575Z,2.20
2018-08-04T16:34:25.558Z,2.40
2018-08-04T16:35:25.543Z,2.40
2018-08-04T16:36:25.526Z,2.40
2018-08-04T16:38:50.029Z,2.40
2018-08-04T16:40:34.792Z,2.50
2018-08-04T16:41:32.160Z,2.40
2018-08-04T16:42:32.136Z,2.30
2018-08-04T16:43:32.128Z,2.30
2018-08-04T16:44:34.730Z,2.10
2018-08-04T16:45:32.087Z,2.40
2018-08-04T16:46:32.071Z,2.50
2018-08-04T16:47:32.054Z,2.50
2018-08-04T16:48:32.037Z,2.50
2018-08-04T16:49:32.119Z,2.10
2018-08-04T16:51:56.320Z,2.50
2018-08-04T16:55:44.925Z,1.80
2018-08-04T16:58:09.526Z,2.50
2018-08-04T16:59:09.202Z,2.10
2018-08-04T17:01:33.499Z,2.00
2018-08-04T17:03:57.792Z,2.00
2018-08-04T17:04:57.571Z,2.10
2018-08-04T17:08:06.641Z,2.20
2018-08-04T17:09:04.001Z,2.30
2018-08-04T17:10:46.341Z,2.30
2018-08-04T17:11:46.323Z,2.30
2018-08-04T17:12:46.104Z,2.10
2018-08-04T17:13:46.291Z,2.20
2018-08-04T17:14:46.270Z,2.20
2018-08-04T17:15:46.248Z,2.00
2018-08-04T17:16:46.028Z,2.10
2018-08-04T17:17:46.009Z,2.30
2018-08-04T17:18:46.194Z,2.10
2018-08-04T17:19:45.972Z,2.10
2018-08-04T17:20:46.156Z,2.10
2018-08-04T17:21:45.937Z,2.10
2018-08-04T17:24:55.210Z,2.20
2018-08-04T17:31:29.808Z,2.00
2018-08-04T17:33:54.098Z,2.10
2018-08-04T17:37:00.542Z,2.40
2018-08-04T17:38:00.320Z,2.50
2018-08-04T17:39:00.299Z,2.40
2018-08-04T17:40:00.281Z,2.30
2018-08-04T17:41:00.264Z,2.10
2018-08-04T17:42:00.240Z,2.20
2018-08-04T17:43:00.222Z,2.40
2018-08-04T17:44:00.203Z,2.20
2018-08-04T17:45:00.185Z,2.00